Time;durP1;ratioP1;P1;durP2;ratioP2;P2;SDS_P1;SDS_P2;PMS_P1;PMS_P2;Temp;Humidity;BMP_temperature;BMP_pressure;BME280_temperature;BME280_humidity;BME280_pressure;Samples;Min_cycle;Max_cycle;Signal;HPM_P1;HPM_P2
2021/08/24 00:00:41;;;;;;;1.33;0.40;;;;;;;19.88;52.59;103008.53;5052907;28;20028;-65
2021/08/24 00:03:06;;;;;;;2.30;0.47;;;;;;;19.91;52.62;103007.41;5043821;28;20021;-64
2021/08/24 00:05:35;;;;;;;2.70;0.70;;;;;;;19.90;52.96;103002.94;5034673;28;20033;-64
2021/08/24 00:08:00;;;;;;;1.05;0.60;;;;;;;19.85;52.25;103003.34;5036785;28;20018;-64
2021/08/24 00:11:02;;;;;;;0.98;0.40;;;;;;;19.88;52.62;103008.53;5048857;28;20030;-60
2021/08/24 00:13:28;;;;;;;1.77;0.80;;;;;;;19.85;53.33;103007.94;4965727;28;20139;-61
2021/08/24 00:15:54;;;;;;;1.13;0.40;;;;;;;19.86;52.37;103006.94;4956384;29;20535;-63
2021/08/24 00:18:21;;;;;;;2.33;0.80;;;;;;;19.85;53.51;102999.75;4956426;29;20027;-63
2021/08/24 00:20:50;;;;;;;1.75;0.60;;;;;;;19.90;52.38;103009.25;4956209;29;20043;-65
2021/08/24 00:23:18;;;;;;;2.13;0.52;;;;;;;19.83;52.42;103008.06;4956689;28;20043;-64
2021/08/24 00:25:43;;;;;;;0.82;0.50;;;;;;;19.81;53.02;103007.28;4940771;29;20023;-64
2021/08/24 00:28:09;;;;;;;2.75;0.52;;;;;;;19.82;53.65;103017.25;4955914;29;20034;-65
2021/08/24 00:30:38;;;;;;;1.27;0.40;;;;;;;19.88;52.25;103011.25;4955816;29;20038;-63
2021/08/24 00:33:03;;;;;;;3.33;0.70;;;;;;;19.85;53.07;103011.53;4959773;28;20027;-65
2021/08/24 00:35:29;;;;;;;2.50;0.65;;;;;;;19.83;52.95;103003.47;4975319;28;20066;-62
2021/08/24 00:37:55;;;;;;;2.03;0.73;;;;;;;19.84;53.15;103004.34;4975544;28;20101;-65
2021/08/24 00:41:02;;;;;;;1.10;0.52;;;;;;;19.82;52.75;103011.78;4985830;28;20034;-61
2021/08/24 00:43:31;;;;;;;2.20;0.63;;;;;;;19.82;53.19;103011.78;4977628;28;20081;-63
2021/08/24 00:46:03;;;;;;;4.72;0.80;;;;;;;19.75;53.24;103018.75;4974928;28;20027;-62
2021/08/24 00:48:32;;;;;;;2.22;0.60;;;;;;;19.80;53.04;103019.22;5032205;28;20033;-63
2021/08/24 00:50:58;;;;;;;1.13;0.55;;;;;;;19.77;52.51;103025.81;5036897;28;20124;-61
2021/08/24 00:53:29;;;;;;;1.55;0.70;;;;;;;19.78;53.03;103027.53;5036486;28;20064;-62
2021/08/24 00:55:55;;;;;;;3.45;0.95;;;;;;;19.70;53.22;103024.59;5035880;28;20030;-62
2021/08/24 00:58:20;;;;;;;2.38;0.73;;;;;;;19.78;52.66;103043.91;5035806;28;20077;-64
2021/08/24 01:00:47;;;;;;;1.67;0.47;;;;;;;19.77;52.34;103042.19;5035821;28;20065;-64
2021/08/24 01:03:19;;;;;;;1.02;0.52;;;;;;;19.72;52.81;103038.09;5039975;28;20665;-65
2021/08/24 01:05:47;;;;;;;3.60;0.80;;;;;;;19.73;52.94;103046.16;5056083;28;20039;-63
2021/08/24 01:08:29;;;;;;;2.08;0.50;;;;;;;19.70;53.18;103040.09;5035859;28;20021;-65
2021/08/24 01:11:23;;;;;;;1.42;0.73;;;;;;;19.79;52.99;103034.72;5035527;28;20029;-64
2021/08/24 01:14:27;;;;;;;0.63;0.40;;;;;;;19.77;52.82;103035.84;5044870;28;20020;-64
2021/08/24 01:17:09;;;;;;;2.55;0.68;;;;;;;19.76;52.83;103039.59;5048849;28;20050;-60
2021/08/24 01:20:06;;;;;;;1.70;0.68;;;;;;;19.72;53.80;103038.09;5034114;28;20037;-64
2021/08/24 01:22:45;;;;;;;3.65;0.90;;;;;;;19.76;53.72;103029.53;5015370;28;20021;-64
2021/08/24 01:25:20;;;;;;;2.70;0.70;;;;;;;19.72;52.53;103032.66;5033163;28;20493;-65
2021/08/24 01:27:51;;;;;;;2.22;0.88;;;;;;;19.66;52.32;103033.16;5016728;28;20040;-64
2021/08/24 01:30:19;;;;;;;2.28;0.50;;;;;;;19.63;52.91;103027.94;5033191;28;20033;-64
2021/08/24 01:32:56;;;;;;;1.73;0.70;;;;;;;19.66;52.47;103031.31;5027600;28;20056;-64
2021/08/24 01:35:58;;;;;;;2.58;0.85;;;;;;;19.66;54.22;103027.72;5032846;28;20025;-63
2021/08/24 01:38:25;;;;;;;2.42;1.00;;;;;;;19.66;53.79;103034.03;5033053;28;20036;-62
2021/08/24 01:41:09;;;;;;;0.88;0.32;;;;;;;19.67;53.04;103037.63;5029674;28;20037;-64
2021/08/24 01:43:59;;;;;;;1.48;0.80;;;;;;;19.72;52.57;103032.66;5016524;28;20080;-63
2021/08/24 01:46:38;;;;;;;3.08;0.60;;;;;;;19.62;53.04;103031.66;5026775;28;20100;-61
2021/08/24 01:49:04;;;;;;;2.28;0.57;;;;;;;19.64;53.00;103030.53;5031845;28;20052;-65
2021/08/24 01:51:44;;;;;;;1.67;0.52;;;;;;;19.64;53.18;103030.53;5034664;28;20037;-64
2021/08/24 01:54:21;;;;;;;0.82;0.40;;;;;;;19.68;53.33;103033.91;5054337;28;20094;-64
2021/08/24 01:56:48;;;;;;;2.40;0.60;;;;;;;19.59;53.40;103031.94;5054262;28;20091;-62
2021/08/24 01:59:36;;;;;;;3.38;0.50;;;;;;;19.60;53.79;103034.53;5037149;28;20036;-63
2021/08/24 02:02:14;;;;;;;0.90;0.50;;;;;;;19.72;52.99;103032.66;5042760;28;20120;-61
2021/08/24 02:04:54;;;;;;;1.63;0.50;;;;;;;19.61;53.34;103030.81;5054801;28;20108;-63
2021/08/24 02:07:22;;;;;;;3.10;0.93;;;;;;;19.64;53.19;103025.09;5037072;28;20099;-65
2021/08/24 02:09:51;;;;;;;1.70;0.80;;;;;;;19.60;53.55;103028.19;5054306;28;20024;-64
2021/08/24 02:12:22;;;;;;;1.13;0.40;;;;;;;19.53;53.97;103017.78;5051178;28;20029;-64
2021/08/24 02:14:48;;;;;;;3.15;0.88;;;;;;;19.61;53.06;103019.88;5062370;28;20036;-63
2021/08/24 02:17:16;;;;;;;1.85;0.60;;;;;;;19.70;52.60;103023.72;5054248;28;20377;-64
2021/08/24 02:19:48;;;;;;;2.83;0.63;;;;;;;19.62;53.84;103023.47;5054465;28;20028;-64
2021/08/24 02:22:19;;;;;;;1.88;0.50;;;;;;;19.65;53.02;103020.50;5051830;28;20067;-63
2021/08/24 02:24:53;;;;;;;3.55;0.60;;;;;;;19.57;54.17;103017.56;5034446;28;20040;-64
2021/08/24 02:27:26;;;;;;;2.58;0.60;;;;;;;19.53;53.65;103017.78;5034249;28;20367;-64
2021/08/24 02:29:52;;;;;;;0.73;0.50;;;;;;;19.57;54.12;103017.56;5033756;28;20036;-62
2021/08/24 02:32:40;;;;;;;1.55;0.60;;;;;;;19.52;52.75;103021.50;5046818;28;20021;-63
2021/08/24 02:35:12;;;;;;;1.38;0.60;;;;;;;19.51;53.19;103019.75;5053852;28;20055;-62
2021/08/24 02:37:43;;;;;;;2.50;0.57;;;;;;;19.55;54.14;103022.28;5054135;28;20436;-63
2021/08/24 02:40:41;;;;;;;0.70;0.38;;;;;;;19.57;53.16;103025.72;5042296;28;20107;-61
2021/08/24 02:43:28;;;;;;;0.73;0.25;;;;;;;19.53;53.08;103017.78;5034126;28;20037;-61
2021/08/24 02:46:05;;;;;;;1.95;0.75;;;;;;;19.52;53.57;103016.03;5043515;28;20025;-64
2021/08/24 02:48:33;;;;;;;2.05;0.90;;;;;;;19.59;53.77;103016.41;5053251;28;20028;-63
2021/08/24 02:50:59;;;;;;;0.88;0.57;;;;;;;19.49;53.17;103019.03;5042745;28;20026;-64
2021/08/24 02:53:25;;;;;;;1.85;0.40;;;;;;;19.55;53.09;103009.50;5016282;28;20028;-63
2021/08/24 02:55:51;;;;;;;1.90;0.45;;;;;;;19.57;53.50;103009.38;5033460;28;20035;-64
2021/08/24 02:58:18;;;;;;;1.08;0.40;;;;;;;19.58;53.26;103013.81;5033979;28;20380;-63
2021/08/24 03:00:43;;;;;;;5.90;1.15;;;;;;;19.57;53.46;103017.56;5039912;28;20029;-64
2021/08/24 03:03:08;;;;;;;2.85;0.60;;;;;;;19.55;52.93;103014.94;5053584;28;20033;-62
2021/08/24 03:05:34;;;;;;;1.65;0.80;;;;;;;19.47;53.74;103012.81;5035645;28;20044;-63
2021/08/24 03:08:01;;;;;;;1.52;0.47;;;;;;;19.47;53.61;103018.25;5053335;28;20450;-63
2021/08/24 03:10:30;;;;;;;1.88;0.57;;;;;;;19.50;53.02;103007.13;5035711;28;20529;-63
2021/08/24 03:13:10;;;;;;;0.52;0.25;;;;;;;19.49;53.80;102999.94;5043194;28;20385;-64
2021/08/24 03:15:46;;;;;;;1.77;0.45;;;;;;;19.57;53.78;103001.19;5036113;28;20072;-64
2021/08/24 03:18:21;;;;;;;1.35;0.50;;;;;;;19.57;53.67;103012.09;5044853;28;20033;-63
2021/08/24 03:20:52;;;;;;;2.30;0.50;;;;;;;19.59;53.53;103002.78;5051325;28;20378;-62
2021/08/24 03:23:21;;;;;;;1.55;0.45;;;;;;;19.57;53.96;102990.25;5056187;28;20017;-60
2021/08/24 03:25:49;;;;;;;1.38;0.30;;;;;;;19.63;53.19;102989.75;5052520;28;20082;-63
2021/08/24 03:28:18;;;;;;;2.50;0.30;;;;;;;19.63;53.26;102987.00;5053218;28;20013;-63
2021/08/24 03:30:44;;;;;;;0.85;0.25;;;;;;;19.58;53.53;102989.25;5052685;28;20029;-63
2021/08/24 03:33:12;;;;;;;1.15;0.30;;;;;;;19.60;52.85;102990.00;5052340;28;20090;-63
2021/08/24 03:35:37;;;;;;;0.80;0.45;;;;;;;19.58;53.94;102992.00;5052283;28;20025;-62
2021/08/24 03:38:04;;;;;;;1.83;0.30;;;;;;;19.58;53.34;102986.53;5052909;28;20021;-64
2021/08/24 03:40:30;;;;;;;1.23;0.38;;;;;;;19.53;53.40;102989.63;5050853;28;20033;-62
2021/08/24 03:42:56;;;;;;;0.63;0.30;;;;;;;19.56;53.58;102986.66;5052136;28;20037;-63
2021/08/24 03:45:24;;;;;;;1.38;0.47;;;;;;;19.53;54.58;102989.63;5035331;28;20029;-61
2021/08/24 03:47:49;;;;;;;0.45;0.30;;;;;;;19.52;53.42;102999.66;5053376;28;20035;-62
2021/08/24 03:50:14;;;;;;;0.57;0.10;;;;;;;19.50;54.01;103001.66;5052734;28;20017;-62
2021/08/24 03:52:40;;;;;;;1.65;0.52;;;;;;;19.55;53.19;103004.03;5033299;28;20417;-62
2021/08/24 03:55:06;;;;;;;1.35;0.30;;;;;;;19.53;53.24;103001.41;5032903;28;20032;-63
2021/08/24 03:57:31;;;;;;;2.17;0.35;;;;;;;19.57;53.08;103010.22;5032773;28;20379;-62
2021/08/24 04:00:07;;;;;;;1.42;0.25;;;;;;;19.54;54.13;103007.75;5043789;28;20025;-61
2021/08/24 04:02:32;;;;;;;0.40;0.10;;;;;;;20.20;52.08;103004.94;5033401;28;20033;-62
2021/08/24 04:05:01;;;;;;;0.80;0.50;;;;;;;20.72;50.06;103013.09;5032385;28;20025;-63
2021/08/24 04:07:28;;;;;;;1.45;0.25;;;;;;;20.96;50.33;102995.50;5032792;28;20025;-62
2021/08/24 04:09:54;;;;;;;0.68;0.30;;;;;;;21.14;49.79;103003.91;5032759;28;20029;-62
2021/08/24 04:12:19;;;;;;;0.50;0.28;;;;;;;21.25;49.80;103004.72;5033064;28;20545;-63
2021/08/24 04:14:44;;;;;;;0.30;0.10;;;;;;;21.42;49.46;103002.31;5033110;28;20382;-61
2021/08/24 04:17:10;;;;;;;0.60;0.20;;;;;;;21.52;49.59;103001.34;5032832;28;20029;-63
2021/08/24 04:19:36;;;;;;;0.52;0.30;;;;;;;21.59;49.74;103004.38;5045243;28;20056;-62
2021/08/24 04:22:06;;;;;;;0.45;0.10;;;;;;;21.65;50.60;102998.31;5052257;28;20440;-64
2021/08/24 04:24:31;;;;;;;0.55;0.10;;;;;;;21.73;49.56;103009.44;5052354;28;20029;-62
2021/08/24 04:26:57;;;;;;;1.20;0.45;;;;;;;21.73;49.65;103006.72;5056341;28;20033;-60
2021/08/24 04:29:22;;;;;;;0.80;0.30;;;;;;;21.76;50.53;103000.94;5015108;28;20429;-62
2021/08/24 04:31:47;;;;;;;0.95;0.20;;;;;;;21.81;51.30;103001.38;5043415;28;20039;-62
2021/08/24 04:34:13;;;;;;;0.88;0.20;;;;;;;21.81;51.43;102995.91;5052369;28;20053;-63
2021/08/24 04:36:38;;;;;;;1.60;0.30;;;;;;;21.82;52.12;102997.63;5034532;28;20029;-62
2021/08/24 04:39:03;;;;;;;1.63;0.40;;;;;;;21.89;51.74;103000.69;5051725;28;20531;-64
2021/08/24 04:41:31;;;;;;;0.95;0.40;;;;;;;21.92;51.45;102990.28;5052270;28;20021;-63
2021/08/24 04:43:56;;;;;;;0.22;0.10;;;;;;;21.98;51.62;102999.81;5052292;28;20025;-64
2021/08/24 04:46:21;;;;;;;0.55;0.20;;;;;;;21.98;51.92;102996.19;5052565;28;20039;-63
2021/08/24 04:48:47;;;;;;;0.95;0.20;;;;;;;21.99;52.14;102993.31;5045158;28;20026;-65
2021/08/24 04:51:12;;;;;;;2.33;0.10;;;;;;;22.04;52.47;102990.16;5032537;28;20040;-64
2021/08/24 04:53:38;;;;;;;0.50;0.30;;;;;;;22.06;51.89;102999.13;5042519;28;20037;-65
2021/08/24 04:56:04;;;;;;;1.60;0.50;;;;;;;22.05;52.92;102987.31;5037899;28;20027;-64
2021/08/24 04:58:29;;;;;;;1.33;0.20;;;;;;;22.05;52.23;102998.28;5067198;28;20036;-60
2021/08/24 05:00:54;;;;;;;0.73;0.20;;;;;;;22.14;52.80;102991.03;5058308;28;20037;-65
2021/08/24 05:03:19;;;;;;;0.45;0.10;;;;;;;22.14;53.03;103007.47;5054313;28;20017;-64
2021/08/24 05:05:45;;;;;;;0.20;0.20;;;;;;;22.14;53.60;103005.59;5054126;28;20037;-65
2021/08/24 05:08:10;;;;;;;0.95;0.28;;;;;;;22.13;52.28;102994.78;5055802;28;20066;-63
2021/08/24 05:10:36;;;;;;;0.75;0.40;;;;;;;22.18;53.08;103008.94;5055749;28;20025;-65
2021/08/24 05:13:02;;;;;;;0.95;0.20;;;;;;;22.11;52.93;103007.78;5055319;28;20029;-64
2021/08/24 05:15:28;;;;;;;0.85;0.25;;;;;;;22.20;52.83;103005.03;5042562;28;20024;-64
2021/08/24 05:17:53;;;;;;;1.85;0.30;;;;;;;22.14;52.56;103002.00;5055488;28;20355;-64
2021/08/24 05:20:19;;;;;;;2.67;0.73;;;;;;;22.18;53.38;103003.47;5055746;28;20025;-64
2021/08/24 05:22:46;;;;;;;0.32;0.15;;;;;;;22.17;53.30;103009.91;5055303;28;20409;-65
2021/08/24 05:25:14;;;;;;;0.55;0.20;;;;;;;22.21;52.82;103022.34;5055246;28;20044;-64
2021/08/24 05:27:40;;;;;;;4.45;0.80;;;;;;;22.23;53.44;103013.97;5055318;28;20032;-64
2021/08/24 05:30:08;;;;;;;1.05;0.28;;;;;;;22.23;53.64;103006.63;5056011;28;20025;-64
2021/08/24 05:32:34;;;;;;;0.75;0.20;;;;;;;22.29;53.83;103006.03;5048216;28;20025;-65
2021/08/24 05:34:59;;;;;;;1.33;0.40;;;;;;;22.25;53.13;102998.25;5020394;28;20021;-64
2021/08/24 05:37:24;;;;;;;1.23;0.17;;;;;;;22.26;53.18;103005.47;5024556;28;20056;-66
2021/08/24 05:39:50;;;;;;;0.45;0.20;;;;;;;22.30;54.26;103006.88;5036235;28;20030;-65
2021/08/24 05:42:15;;;;;;;0.90;0.20;;;;;;;22.26;53.17;103000.84;5035118;28;20439;-65
2021/08/24 05:44:41;;;;;;;1.15;0.47;;;;;;;22.31;53.48;102998.53;5033910;28;20022;-65
2021/08/24 05:47:06;;;;;;;0.30;0.10;;;;;;;22.29;53.58;102995.06;5017885;28;20033;-64
2021/08/24 05:49:33;;;;;;;0.50;0.30;;;;;;;22.31;53.47;102993.03;5048078;28;20036;-66
2021/08/24 05:51:59;;;;;;;0.55;0.30;;;;;;;22.35;53.48;102993.63;5065532;28;20043;-62
2021/08/24 05:54:25;;;;;;;0.43;0.30;;;;;;;22.37;53.85;102989.75;5063584;28;20028;-66
2021/08/24 05:56:50;;;;;;;2.08;0.70;;;;;;;22.38;53.35;102991.47;5053344;28;20482;-65
2021/08/24 05:59:16;;;;;;;0.82;0.17;;;;;;;22.32;53.73;102989.28;5053916;28;20527;-65
2021/08/24 06:01:47;;;;;;;0.30;0.10;;;;;;;22.35;53.81;102986.28;5053703;28;20108;-62
2021/08/24 06:04:13;;;;;;;0.43;0.10;;;;;;;22.42;54.11;102978.31;5050225;28;20490;-65
2021/08/24 06:06:40;;;;;;;1.05;0.40;;;;;;;22.38;53.53;102996.09;5042366;28;20036;-65
2021/08/24 06:09:09;;;;;;;0.47;0.20;;;;;;;22.41;52.90;103004.88;5047084;28;20028;-65
2021/08/24 06:11:44;;;;;;;0.47;0.20;;;;;;;22.45;54.10;103000.81;5049754;28;20100;-66
2021/08/24 06:14:10;;;;;;;0.63;0.20;;;;;;;22.40;54.02;103003.13;5024225;28;20096;-65
2021/08/24 06:16:37;;;;;;;2.05;0.38;;;;;;;22.38;54.58;103005.16;5027402;28;20036;-66
2021/08/24 06:19:03;;;;;;;1.40;0.40;;;;;;;22.40;54.44;103002.28;5050936;28;20025;-66
2021/08/24 06:21:29;;;;;;;1.08;0.15;;;;;;;22.44;53.46;103010.06;5044313;28;20029;-65
2021/08/24 06:23:54;;;;;;;0.68;0.10;;;;;;;22.43;54.46;103013.81;5042983;28;20069;-66
2021/08/24 06:26:20;;;;;;;0.35;0.10;;;;;;;22.36;54.84;103012.69;5050990;28;20083;-65
2021/08/24 06:28:45;;;;;;;0.52;0.10;;;;;;;22.47;54.65;103012.50;5050475;28;20064;-66
2021/08/24 06:31:17;;;;;;;2.58;0.35;;;;;;;22.49;53.82;103012.34;5041716;28;20029;-66
2021/08/24 06:33:44;;;;;;;1.85;0.30;;;;;;;22.48;54.47;103005.13;5040366;28;20044;-66
2021/08/24 06:36:10;;;;;;;1.38;0.20;;;;;;;22.46;54.07;102999.81;5042278;28;20098;-63
2021/08/24 06:38:35;;;;;;;1.05;0.20;;;;;;;22.54;53.89;103009.19;5043058;28;20033;-61
2021/08/24 06:41:04;;;;;;;0.73;0.20;;;;;;;22.56;54.24;103018.13;5040619;28;20033;-63
2021/08/24 06:43:30;;;;;;;0.73;0.17;;;;;;;22.54;54.43;103006.44;5040179;28;20033;-63
2021/08/24 06:45:55;;;;;;;0.70;0.20;;;;;;;22.51;54.32;103011.22;5043985;28;20029;-64
2021/08/24 06:48:21;;;;;;;1.50;0.22;;;;;;;22.47;55.05;103006.16;5039420;28;20032;-65
2021/08/24 06:50:48;;;;;;;2.38;0.40;;;;;;;22.58;54.12;102999.66;5049408;28;20029;-65
2021/08/24 06:53:13;;;;;;;0.95;0.35;;;;;;;22.57;54.47;103003.41;5038806;28;20022;-65
2021/08/24 06:55:39;;;;;;;0.45;0.20;;;;;;;22.55;54.04;103005.44;5042114;28;20032;-64
2021/08/24 06:58:07;;;;;;;0.52;0.10;;;;;;;22.55;53.62;102999.94;5040042;28;20046;-65
2021/08/24 07:00:34;;;;;;;1.38;0.10;;;;;;;22.61;54.27;102999.34;5048191;28;20052;-65
2021/08/24 07:03:00;;;;;;;2.15;0.28;;;;;;;22.61;54.58;103000.22;5041444;28;20513;-66
2021/08/24 07:05:28;;;;;;;0.22;0.10;;;;;;;22.59;54.17;103004.13;5042715;28;20096;-64
2021/08/24 07:07:54;;;;;;;0.85;0.22;;;;;;;22.62;54.59;103001.06;5042606;28;20029;-65
2021/08/24 07:10:21;;;;;;;2.00;0.30;;;;;;;22.64;54.72;103010.00;5041131;28;20024;-62
2021/08/24 07:12:47;;;;;;;2.50;0.47;;;;;;;22.62;54.80;103007.41;5042165;28;20024;-67
2021/08/24 07:15:16;;;;;;;0.45;0.20;;;;;;;22.60;54.40;102998.47;5025478;28;20025;-66
2021/08/24 07:17:42;;;;;;;0.63;0.15;;;;;;;22.61;54.95;103002.09;5040218;28;20032;-63
2021/08/24 07:20:13;;;;;;;0.65;0.20;;;;;;;22.64;54.12;103010.88;5049117;28;20033;-62
2021/08/24 07:22:39;;;;;;;0.65;0.20;;;;;;;22.65;55.12;103006.25;5038783;28;20036;-62
2021/08/24 07:25:08;;;;;;;0.95;0.30;;;;;;;22.59;54.72;103001.38;5044010;28;20021;-64
2021/08/24 07:27:33;;;;;;;0.63;0.32;;;;;;;22.60;53.94;102992.13;5040017;28;20401;-62
2021/08/24 07:29:58;;;;;;;1.52;0.30;;;;;;;22.64;53.96;102993.56;5042435;28;20043;-65
2021/08/24 07:32:24;;;;;;;0.95;0.20;;;;;;;22.66;54.63;102994.28;5051493;28;20025;-63
2021/08/24 07:34:49;;;;;;;0.38;0.17;;;;;;;22.64;54.51;102993.56;5051618;28;20047;-65
2021/08/24 07:37:14;;;;;;;0.98;0.40;;;;;;;22.66;54.51;102999.75;5050003;28;20362;-64
2021/08/24 07:39:40;;;;;;;2.10;0.20;;;;;;;22.67;54.43;102998.75;5019164;28;20025;-64
2021/08/24 07:42:05;;;;;;;0.82;0.30;;;;;;;22.66;54.59;102997.88;5039754;28;20017;-64
2021/08/24 07:44:33;;;;;;;0.43;0.20;;;;;;;22.67;54.40;103001.47;5014362;28;20017;-63
2021/08/24 07:47:00;;;;;;;0.80;0.20;;;;;;;22.65;54.83;103001.63;5045135;28;20033;-65
2021/08/24 07:49:27;;;;;;;0.25;0.10;;;;;;;22.69;54.38;102996.75;5051333;28;20100;-64
2021/08/24 07:51:54;;;;;;;0.30;0.30;;;;;;;22.72;54.55;103001.91;5043175;28;20393;-66
2021/08/24 07:54:21;;;;;;;1.98;0.22;;;;;;;22.69;54.57;103007.72;5051928;28;20055;-64
2021/08/24 07:56:46;;;;;;;1.50;0.50;;;;;;;22.71;54.38;103005.69;5039150;28;20041;-66
2021/08/24 07:59:12;;;;;;;1.65;0.30;;;;;;;22.64;53.53;103004.53;5032773;28;20553;-65
2021/08/24 08:01:37;;;;;;;1.13;0.20;;;;;;;22.70;54.30;102998.47;5032146;28;20066;-64
2021/08/24 08:04:02;;;;;;;0.68;0.38;;;;;;;22.73;54.21;102992.69;5032142;28;20029;-65
2021/08/24 08:06:28;;;;;;;1.52;0.50;;;;;;;22.66;54.78;102997.88;5031785;28;20489;-64
2021/08/24 08:08:53;;;;;;;2.65;0.40;;;;;;;22.67;55.12;102996.00;5023719;28;20074;-66
2021/08/24 08:11:18;;;;;;;0.52;0.35;;;;;;;22.76;54.60;103003.34;5044419;28;20477;-65
2021/08/24 08:13:44;;;;;;;0.52;0.25;;;;;;;22.72;54.74;102996.44;5041351;28;20029;-64
2021/08/24 08:16:09;;;;;;;0.85;0.25;;;;;;;22.73;54.49;102987.19;5051353;28;20034;-66
2021/08/24 08:18:35;;;;;;;0.50;0.20;;;;;;;22.76;55.83;102992.38;5041188;28;20025;-65
2021/08/24 08:21:00;;;;;;;0.88;0.35;;;;;;;22.83;54.88;102988.03;5037202;28;20087;-67
2021/08/24 08:23:25;;;;;;;1.50;0.15;;;;;;;22.89;55.36;102992.94;5043818;28;20025;-64
2021/08/24 08:25:51;;;;;;;1.38;0.13;;;;;;;22.89;55.13;102994.81;5045514;28;20492;-65
2021/08/24 08:28:17;;;;;;;1.38;0.40;;;;;;;22.85;54.66;102986.03;5041010;28;20488;-64
2021/08/24 08:30:44;;;;;;;0.70;0.20;;;;;;;22.72;54.70;102990.97;5051862;28;20036;-64
2021/08/24 08:33:09;;;;;;;0.57;0.10;;;;;;;22.50;55.06;102987.53;5045552;28;20040;-64
2021/08/24 08:35:35;;;;;;;1.80;0.20;;;;;;;22.43;54.78;102991.88;5038211;28;20369;-63
2021/08/24 08:38:00;;;;;;;1.00;0.30;;;;;;;22.49;54.95;102984.94;5037850;28;20064;-65
2021/08/24 08:40:47;;;;;;;1.20;0.30;;;;;;;22.46;54.35;102988.84;5043877;28;20044;-59
2021/08/24 08:43:26;;;;;;;1.83;0.10;;;;;;;22.55;54.56;102984.34;5054673;28;20040;-65
2021/08/24 08:45:52;;;;;;;0.93;0.20;;;;;;;22.45;54.41;102987.09;5054122;28;20056;-65
2021/08/24 08:48:40;;;;;;;1.83;0.15;;;;;;;22.42;54.35;102990.16;5044773;28;20100;-65
2021/08/24 08:51:31;;;;;;;2.58;0.43;;;;;;;22.35;54.44;102983.53;5039560;28;20435;-64
2021/08/24 08:54:20;;;;;;;1.65;0.63;;;;;;;22.49;53.82;102985.78;5040068;28;20120;-61
2021/08/24 08:56:51;;;;;;;0.52;0.20;;;;;;;22.39;54.75;102979.50;5056176;23;20056;-61
2021/08/24 08:59:44;;;;;;;3.47;0.30;;;;;;;22.31;53.61;102982.06;5052754;28;20104;-61
2021/08/24 09:02:21;;;;;;;1.85;0.38;;;;;;;22.37;54.65;102976.03;5039892;28;20116;-63
2021/08/24 09:04:48;;;;;;;1.23;0.20;;;;;;;22.35;53.94;102983.53;5038996;28;20021;-64
2021/08/24 09:07:19;;;;;;;2.45;0.50;;;;;;;22.39;53.91;102974.00;5043217;28;20025;-63
2021/08/24 09:09:45;;;;;;;1.40;0.20;;;;;;;22.36;55.18;102968.81;5027795;28;20511;-65
2021/08/24 09:12:12;;;;;;;1.88;0.30;;;;;;;22.41;54.44;102966.50;5044797;28;20051;-60
2021/08/24 09:14:42;;;;;;;1.10;0.38;;;;;;;22.36;54.75;102973.44;5066855;28;20119;-60
2021/08/24 09:17:25;;;;;;;1.33;0.40;;;;;;;22.39;54.13;102968.53;5051642;28;20053;-64
2021/08/24 09:20:02;;;;;;;3.15;1.05;;;;;;;22.34;55.20;102954.41;5044273;28;20436;-64
2021/08/24 09:22:28;;;;;;;1.55;0.30;;;;;;;22.42;54.25;102951.78;5047392;28;20029;-64
2021/08/24 09:24:53;;;;;;;1.70;0.30;;;;;;;22.37;54.39;102954.09;5054629;28;20075;-64
2021/08/24 09:27:33;;;;;;;2.97;0.38;;;;;;;22.46;54.75;102953.19;5052748;28;20037;-65
2021/08/24 09:29:59;;;;;;;1.10;0.13;;;;;;;22.45;54.34;102940.50;5048016;28;20029;-65
2021/08/24 09:32:26;;;;;;;1.40;0.38;;;;;;;22.45;54.19;102947.88;5046701;28;21289;-65
2021/08/24 09:35:06;;;;;;;0.55;0.20;;;;;;;22.45;53.81;102950.63;5051749;28;20060;-64
2021/08/24 09:37:36;;;;;;;2.38;0.45;;;;;;;22.44;54.55;102938.78;5050443;28;20099;-65
2021/08/24 09:40:04;;;;;;;3.65;0.50;;;;;;;22.37;54.74;102932.19;5040389;28;20208;-64
2021/08/24 09:42:31;;;;;;;3.13;0.55;;;;;;;22.29;55.08;102934.78;5035128;28;20023;-65
2021/08/24 09:45:18;;;;;;;3.63;0.85;;;;;;;22.37;55.23;102932.19;5044067;28;20051;-64
2021/08/24 09:48:05;;;;;;;7.55;1.58;;;;;;;22.31;54.64;102923.66;5045175;28;20421;-62
2021/08/24 09:50:43;;;;;;;6.63;1.35;;;;;;;22.35;54.17;102923.25;5052133;28;20405;-64
2021/08/24 09:53:24;;;;;;;4.00;0.85;;;;;;;22.41;55.09;102921.78;5045138;28;20103;-63
2021/08/24 09:55:50;;;;;;;5.68;0.98;;;;;;;22.38;54.92;102930.31;5029693;28;20047;-64
2021/08/24 09:58:34;;;;;;;4.03;1.08;;;;;;;22.40;54.49;102928.28;5050021;28;20063;-62
2021/08/24 10:01:07;;;;;;;4.25;1.63;;;;;;;22.40;54.75;102923.66;5054200;28;20021;-63
2021/08/24 10:03:48;;;;;;;4.97;1.05;;;;;;;22.39;55.20;102923.81;5054079;28;20068;-62
2021/08/24 10:06:23;;;;;;;3.17;0.95;;;;;;;22.56;53.39;102913.94;5053722;28;20044;-60
2021/08/24 10:08:54;;;;;;;3.30;0.90;;;;;;;22.56;51.60;102902.97;5052396;28;20016;-61
2021/08/24 10:12:06;;;;;;;4.15;0.70;;;;;;;22.48;51.95;102900.97;5059534;28;20056;-59
2021/08/24 10:14:32;;;;;;;3.05;0.50;;;;;;;22.45;51.10;102907.63;5068183;28;20059;-64
2021/08/24 10:16:58;;;;;;;2.70;0.90;;;;;;;22.45;50.76;102909.50;5052704;28;20037;-63
2021/08/24 10:19:27;;;;;;;1.90;0.60;;;;;;;22.36;51.16;102908.53;5054615;28;20092;-64
2021/08/24 10:21:58;;;;;;;2.30;0.70;;;;;;;22.43;50.86;102901.44;5054453;28;20373;-62
2021/08/24 10:24:37;;;;;;;1.95;0.77;;;;;;;22.35;50.84;102906.81;5055576;28;20029;-64
2021/08/24 10:27:07;;;;;;;2.90;0.50;;;;;;;22.27;51.90;102898.44;5052593;28;20021;-63
2021/08/24 10:29:36;;;;;;;5.25;0.88;;;;;;;22.33;50.94;102897.84;5054166;28;20052;-64
2021/08/24 10:32:08;;;;;;;2.53;0.70;;;;;;;22.30;50.66;102898.13;5054202;28;20020;-63
2021/08/24 10:34:39;;;;;;;3.65;0.60;;;;;;;22.29;50.41;102903.78;5054671;28;20113;-61
2021/08/24 10:37:15;;;;;;;1.20;0.52;;;;;;;22.27;50.58;102892.97;5054316;28;20017;-64
2021/08/24 10:39:40;;;;;;;4.22;0.85;;;;;;;22.21;50.71;102893.56;5053952;28;20037;-64
2021/08/24 10:42:08;;;;;;;2.08;0.80;;;;;;;22.24;50.27;102893.28;5054001;28;20028;-65
2021/08/24 10:44:46;;;;;;;3.17;0.60;;;;;;;22.14;50.29;102890.53;5059690;28;20033;-64
2021/08/24 10:47:46;;;;;;;0.82;0.63;;;;;;;22.17;50.52;102889.38;5033966;28;20074;-66
2021/08/24 10:50:46;;;;;;;0.90;0.40;;;;;;;22.19;50.87;102884.63;5034833;28;20041;-64
2021/08/24 10:53:48;;;;;;;1.65;0.63;;;;;;;22.12;51.28;102888.97;5033837;28;20626;-61
2021/08/24 10:56:19;;;;;;;1.75;0.45;;;;;;;22.18;51.46;102881.03;5033724;28;20021;-65
2021/08/24 10:58:55;;;;;;;1.65;0.30;;;;;;;22.16;50.96;102876.69;5033652;28;20077;-66
2021/08/24 11:01:57;;;;;;;1.75;0.32;;;;;;;22.26;50.77;102861.09;5046590;28;20029;-63
2021/08/24 11:04:37;;;;;;;1.25;0.30;;;;;;;22.20;50.15;102869.94;4981513;28;20042;-65
2021/08/24 11:07:33;;;;;;;2.45;0.47;;;;;;;22.08;50.79;102865.63;4991241;28;20037;-64
2021/08/24 11:10:10;;;;;;;2.58;0.40;;;;;;;22.16;50.94;102857.50;4988880;28;20489;-61
2021/08/24 11:13:00;;;;;;;1.92;0.20;;;;;;;22.14;51.09;102867.75;4974824;28;20046;-61
2021/08/24 11:16:03;;;;;;;4.18;0.20;;;;;;;22.11;51.46;102865.31;4983891;28;20034;-63
2021/08/24 11:18:54;;;;;;;0.93;0.22;;;;;;;22.17;50.90;102853.75;4976074;28;20118;-63
2021/08/24 11:21:34;;;;;;;2.17;0.30;;;;;;;22.15;50.71;102850.31;4975536;28;20070;-63
2021/08/24 11:24:39;;;;;;;0.77;0.38;;;;;;;22.04;51.32;102855.94;4973836;28;20034;-65
2021/08/24 11:27:41;;;;;;;0.43;0.40;;;;;;;22.10;50.35;102844.41;4963311;28;20724;-61
2021/08/24 11:30:44;;;;;;;1.80;0.50;;;;;;;22.12;51.13;102834.16;4921296;29;20072;-60
2021/08/24 11:33:24;;;;;;;1.38;0.40;;;;;;;22.09;50.72;102845.44;4919221;29;20051;-62
2021/08/24 11:36:01;;;;;;;1.95;0.17;;;;;;;22.07;50.40;102836.50;4929059;29;20492;-65
2021/08/24 11:38:33;;;;;;;1.38;0.47;;;;;;;22.13;51.26;102830.41;4915430;29;20055;-63
2021/08/24 11:40:58;;;;;;;1.90;0.30;;;;;;;22.08;50.53;102827.28;4939811;29;20050;-65
2021/08/24 11:43:39;;;;;;;0.73;0.30;;;;;;;22.15;51.23;102825.66;4944949;29;20035;-63